ベルファスト/国際 の空港の天気 - METARとTAF

ベルファスト国際空港 ( EGAA / BFS ) - イギリス ベルファスト
飛行場実況気象(Metar)
観測時間07/20 12:20 BST (07/20 11:20 UTC)
風向・風速西 6m/s
視程10km以上
天気現象
少しの雲 雲底高度 940m
全天の8割程度の雲 雲底高度 1250m
気温17℃
湿度68%
気圧1006hPa
METAREGAA 201120Z 28011KT 9999 FEW031 BKN041 17/11 Q1006
過去の天気等 Google飛行場航空写真 Wunderground天気予報

過去48時間のMETAR

飛行場予報(TAF)
発表時間: 7/20 11:59 BST (7/20 10:59 UTC)
予報対象時間: 20日13時 BST ~ 21日13時 BST
風向・風速西 5m/s
視程10km以上
全天の4割程度の雲 雲底高度 910m
20日13時 BST ~ 20日23時 BST に 確率 30% で一時的に
視程9000m
天気現象弱いしゅう雨
21日3時 BST ~ 21日10時 BST に 確率 40% で一時的に
全天の8割程度の雲 雲底高度 180m
21日9時 BST ~ 21日12時 BST に徐々に
風向・風速南 6m/s
21日10時 BST ~ 21日13時 BST に 確率 40% で一時的に
視程7000m
天気現象
全天の8割程度の雲 雲底高度 430m
TAF EGAA 201059Z 2012/2112 27009KT 9999 SCT030
PROB30 TEMPO 2012/2022 9000 -SHRA
PROB40 TEMPO 2102/2109 BKN006
BECMG 2108/2111 19012KT
PROB40 TEMPO 2109/2112 7000 RA BKN014